sensor_id;sensor_type;location;lat;lon;timestamp;pressure;altitude;pressure_sealevel;temperature;humidity
36788;BME280;22738;45.560;9.434;2022-07-17T00:03:47;99986.06;;;27.92;100.00
36788;BME280;22738;45.560;9.434;2022-07-17T00:10:28;99992.84;;;28.01;100.00
36788;BME280;22738;45.560;9.434;2022-07-17T00:17:09;99995.50;;;28.01;100.00
36788;BME280;22738;45.560;9.434;2022-07-17T00:23:50;99999.22;;;28.00;100.00
36788;BME280;22738;45.560;9.434;2022-07-17T00:30:31;100002.88;;;27.86;100.00
36788;BME280;22738;45.560;9.434;2022-07-17T00:37:12;99997.16;;;27.89;100.00
36788;BME280;22738;45.560;9.434;2022-07-17T00:43:53;99992.63;;;27.77;100.00
36788;BME280;22738;45.560;9.434;2022-07-17T00:50:37;99994.88;;;27.80;100.00
36788;BME280;22738;45.560;9.434;2022-07-17T00:57:18;100008.59;;;27.77;100.00
36788;BME280;22738;45.560;9.434;2022-07-17T01:04:01;100005.72;;;27.72;100.00
36788;BME280;22738;45.560;9.434;2022-07-17T01:10:42;100011.88;;;27.72;100.00
36788;BME280;22738;45.560;9.434;2022-07-17T01:17:23;100010.25;;;27.71;100.00
36788;BME280;22738;45.560;9.434;2022-07-17T01:24:05;100008.59;;;27.64;100.00
36788;BME280;22738;45.560;9.434;2022-07-17T01:30:48;100011.03;;;27.52;100.00
36788;BME280;22738;45.560;9.434;2022-07-17T01:37:30;100019.25;;;27.70;100.00
36788;BME280;22738;45.560;9.434;2022-07-17T01:44:11;100018.44;;;27.56;100.00
36788;BME280;22738;45.560;9.434;2022-07-17T01:50:52;100026.22;;;27.65;100.00
36788;BME280;22738;45.560;9.434;2022-07-17T01:57:33;100033.59;;;27.69;100.00
36788;BME280;22738;45.560;9.434;2022-07-17T02:04:14;100039.34;;;27.66;100.00
36788;BME280;22738;45.560;9.434;2022-07-17T02:10:56;100046.72;;;27.64;100.00
36788;BME280;22738;45.560;9.434;2022-07-17T02:17:38;100049.16;;;27.59;100.00
36788;BME280;22738;45.560;9.434;2022-07-17T02:24:19;100048.34;;;27.65;100.00
36788;BME280;22738;45.560;9.434;2022-07-17T02:31:01;100044.47;;;27.61;100.00
36788;BME280;22738;45.560;9.434;2022-07-17T02:37:43;100047.94;;;27.48;100.00
36788;BME280;22738;45.560;9.434;2022-07-17T02:44:26;100050.31;;;27.30;100.00
36788;BME280;22738;45.560;9.434;2022-07-17T02:51:08;100060.09;;;27.17;100.00
36788;BME280;22738;45.560;9.434;2022-07-17T02:57:50;100057.97;;;27.06;100.00
36788;BME280;22738;45.560;9.434;2022-07-17T03:04:31;100060.56;;;26.93;100.00
36788;BME280;22738;45.560;9.434;2022-07-17T03:11:12;100068.00;;;26.69;100.00
36788;BME280;22738;45.560;9.434;2022-07-17T03:17:53;100074.47;;;26.60;100.00
36788;BME280;22738;45.560;9.434;2022-07-17T03:24:34;100090.00;;;26.57;100.00
36788;BME280;22738;45.560;9.434;2022-07-17T03:31:15;100090.81;;;26.51;100.00
36788;BME280;22738;45.560;9.434;2022-07-17T03:37:56;100090.88;;;26.36;100.00
36788;BME280;22738;45.560;9.434;2022-07-17T03:44:38;100111.16;;;26.37;100.00
36788;BME280;22738;45.560;9.434;2022-07-17T03:51:19;100110.31;;;26.37;100.00
36788;BME280;22738;45.560;9.434;2022-07-17T03:58:00;100117.28;;;26.38;100.00
36788;BME280;22738;45.560;9.434;2022-07-17T04:04:41;100124.72;;;26.49;100.00
36788;BME280;22738;45.560;9.434;2022-07-17T04:11:22;100138.16;;;26.41;100.00
36788;BME280;22738;45.560;9.434;2022-07-17T04:18:03;100148.84;;;26.47;100.00
36788;BME280;22738;45.560;9.434;2022-07-17T04:24:44;100168.16;;;26.56;100.00
36788;BME280;22738;45.560;9.434;2022-07-17T04:31:26;100183.91;;;26.78;100.00
36788;BME280;22738;45.560;9.434;2022-07-17T04:38:07;100196.03;;;26.87;100.00
36788;BME280;22738;45.560;9.434;2022-07-17T04:44:48;100202.16;;;26.81;100.00
36788;BME280;22738;45.560;9.434;2022-07-17T04:51:29;100200.00;;;26.92;100.00
36788;BME280;22738;45.560;9.434;2022-07-17T04:58:10;100206.41;;;27.04;100.00
36788;BME280;22738;45.560;9.434;2022-07-17T05:04:51;100216.50;;;27.15;100.00
36788;BME280;22738;45.560;9.434;2022-07-17T05:11:32;100224.69;;;27.41;100.00
36788;BME280;22738;45.560;9.434;2022-07-17T05:18:13;100229.97;;;27.75;100.00
36788;BME280;22738;45.560;9.434;2022-07-17T05:24:54;100233.00;;;28.19;100.00
36788;BME280;22738;45.560;9.434;2022-07-17T05:31:35;100251.59;;;29.06;100.00
36788;BME280;22738;45.560;9.434;2022-07-17T05:38:17;100269.41;;;31.70;100.00
36788;BME280;22738;45.560;9.434;2022-07-17T05:44:58;100278.91;;;33.49;80.37
36788;BME280;22738;45.560;9.434;2022-07-17T05:51:39;100285.47;;;35.44;62.56
36788;BME280;22738;45.560;9.434;2022-07-17T05:58:20;100291.84;;;36.41;54.27
36788;BME280;22738;45.560;9.434;2022-07-17T06:05:02;100299.09;;;37.31;51.11
36788;BME280;22738;45.560;9.434;2022-07-17T06:11:43;100311.53;;;38.56;49.29
36788;BME280;22738;45.560;9.434;2022-07-17T06:18:25;100311.34;;;37.85;48.02
36788;BME280;22738;45.560;9.434;2022-07-17T06:25:07;100313.75;;;38.79;43.95
36788;BME280;22738;45.560;9.434;2022-07-17T06:31:49;100314.16;;;39.82;42.46
36788;BME280;22738;45.560;9.434;2022-07-17T06:38:30;100327.72;;;40.80;38.24
36788;BME280;22738;45.560;9.434;2022-07-17T06:45:11;100341.25;;;40.02;40.45
36788;BME280;22738;45.560;9.434;2022-07-17T06:51:52;100338.16;;;39.14;42.04
36788;BME280;22738;45.560;9.434;2022-07-17T06:58:33;100343.75;;;34.95;64.38
36788;BME280;22738;45.560;9.434;2022-07-17T07:05:14;100346.38;;;33.13;81.71
36788;BME280;22738;45.560;9.434;2022-07-17T07:11:55;100353.56;;;33.01;84.42
36788;BME280;22738;45.560;9.434;2022-07-17T07:18:36;100359.56;;;34.47;71.14
36788;BME280;22738;45.560;9.434;2022-07-17T07:25:17;100358.28;;;36.64;56.67
36788;BME280;22738;45.560;9.434;2022-07-17T07:31:58;100355.41;;;35.84;57.47
36788;BME280;22738;45.560;9.434;2022-07-17T07:38:39;100364.13;;;35.91;56.14
36788;BME280;22738;45.560;9.434;2022-07-17T07:45:21;100368.06;;;35.62;52.57
36788;BME280;22738;45.560;9.434;2022-07-17T07:52:02;100355.09;;;34.81;59.82
36788;BME280;22738;45.560;9.434;2022-07-17T07:58:50;100371.09;;;34.31;58.71
36788;BME280;22738;45.560;9.434;2022-07-17T08:05:31;100378.38;;;33.03;68.32
36788;BME280;22738;45.560;9.434;2022-07-17T08:12:12;100380.03;;;34.20;66.84
36788;BME280;22738;45.560;9.434;2022-07-17T08:18:53;100376.66;;;33.90;59.80
36788;BME280;22738;45.560;9.434;2022-07-17T08:25:35;100376.53;;;34.08;54.82
36788;BME280;22738;45.560;9.434;2022-07-17T08:32:16;100375.53;;;33.62;58.38
36788;BME280;22738;45.560;9.434;2022-07-17T08:38:57;100385.25;;;34.38;54.28
36788;BME280;22738;45.560;9.434;2022-07-17T08:45:39;100379.50;;;34.46;53.55
36788;BME280;22738;45.560;9.434;2022-07-17T08:52:21;100379.00;;;33.98;50.72
36788;BME280;22738;45.560;9.434;2022-07-17T08:59:03;100379.34;;;33.90;51.74
36788;BME280;22738;45.560;9.434;2022-07-17T09:05:45;100384.81;;;34.29;47.92
36788;BME280;22738;45.560;9.434;2022-07-17T09:12:29;100370.91;;;34.21;51.00
36788;BME280;22738;45.560;9.434;2022-07-17T09:19:10;100374.19;;;34.51;49.09
36788;BME280;22738;45.560;9.434;2022-07-17T09:25:56;100374.41;;;34.21;51.61
36788;BME280;22738;45.560;9.434;2022-07-17T09:32:39;100374.28;;;34.28;50.59
36788;BME280;22738;45.560;9.434;2022-07-17T09:39:21;100367.84;;;34.85;58.49
36788;BME280;22738;45.560;9.434;2022-07-17T09:46:02;100368.94;;;34.56;50.08
36788;BME280;22738;45.560;9.434;2022-07-17T09:52:45;100366.69;;;34.02;56.21
36788;BME280;22738;45.560;9.434;2022-07-17T09:59:28;100371.28;;;33.90;55.60
36788;BME280;22738;45.560;9.434;2022-07-17T10:06:12;100378.59;;;34.29;56.61
36788;BME280;22738;45.560;9.434;2022-07-17T10:12:53;100368.72;;;34.46;60.26
36788;BME280;22738;45.560;9.434;2022-07-17T10:19:46;100372.41;;;34.68;58.81
36788;BME280;22738;45.560;9.434;2022-07-17T10:26:38;100352.09;;;34.37;64.78
36788;BME280;22738;45.560;9.434;2022-07-17T10:33:19;100366.69;;;34.53;57.84
36788;BME280;22738;45.560;9.434;2022-07-17T10:46:45;100354.31;;;34.40;69.55
36788;BME280;22738;45.560;9.434;2022-07-17T10:53:31;100358.50;;;34.60;70.19
36788;BME280;22738;45.560;9.434;2022-07-17T11:00:13;100352.56;;;34.74;67.70
36788;BME280;22738;45.560;9.434;2022-07-17T11:06:54;100344.94;;;34.15;70.94
36788;BME280;22738;45.560;9.434;2022-07-17T11:13:35;100344.94;;;34.55;66.73
36788;BME280;22738;45.560;9.434;2022-07-17T11:20:16;100338.53;;;33.81;75.48
36788;BME280;22738;45.560;9.434;2022-07-17T11:26:57;100338.13;;;34.12;74.59
36788;BME280;22738;45.560;9.434;2022-07-17T11:33:38;100328.81;;;33.92;66.15
36788;BME280;22738;45.560;9.434;2022-07-17T11:40:19;100322.44;;;34.21;67.74
36788;BME280;22738;45.560;9.434;2022-07-17T11:47:01;100311.63;;;34.04;72.73
36788;BME280;22738;45.560;9.434;2022-07-17T11:53:42;100306.66;;;34.01;72.60
36788;BME280;22738;45.560;9.434;2022-07-17T12:00:23;100308.88;;;34.16;68.34
36788;BME280;22738;45.560;9.434;2022-07-17T12:07:04;100304.03;;;34.29;62.58
36788;BME280;22738;45.560;9.434;2022-07-17T12:13:47;100290.66;;;33.95;69.71
36788;BME280;22738;45.560;9.434;2022-07-17T12:20:39;100289.97;;;33.88;74.87
36788;BME280;22738;45.560;9.434;2022-07-17T12:27:20;100282.47;;;33.90;74.66
36788;BME280;22738;45.560;9.434;2022-07-17T12:34:04;100275.19;;;34.02;73.71
36788;BME280;22738;45.560;9.434;2022-07-17T12:40:46;100272.28;;;34.03;72.39
36788;BME280;22738;45.560;9.434;2022-07-17T12:47:27;100260.94;;;33.90;74.08
36788;BME280;22738;45.560;9.434;2022-07-17T12:54:09;100259.47;;;33.82;82.00
36788;BME280;22738;45.560;9.434;2022-07-17T13:00:50;100246.88;;;34.11;75.70
36788;BME280;22738;45.560;9.434;2022-07-17T13:07:31;100256.63;;;34.28;72.16
36788;BME280;22738;45.560;9.434;2022-07-17T13:14:12;100245.25;;;34.10;73.67
36788;BME280;22738;45.560;9.434;2022-07-17T13:20:53;100237.75;;;34.12;77.57
36788;BME280;22738;45.560;9.434;2022-07-17T13:27:34;100241.00;;;34.14;78.09
36788;BME280;22738;45.560;9.434;2022-07-17T13:34:15;100231.22;;;33.96;80.64
36788;BME280;22738;45.560;9.434;2022-07-17T13:40:56;100230.97;;;34.09;75.28
36788;BME280;22738;45.560;9.434;2022-07-17T13:47:38;100222.91;;;33.98;77.93
36788;BME280;22738;45.560;9.434;2022-07-17T13:54:19;100215.94;;;33.85;76.17
36788;BME280;22738;45.560;9.434;2022-07-17T14:01:00;100213.78;;;34.27;72.38
36788;BME280;22738;45.560;9.434;2022-07-17T14:07:41;100218.13;;;34.28;67.75
36788;BME280;22738;45.560;9.434;2022-07-17T14:14:23;100209.19;;;34.11;70.32
36788;BME280;22738;45.560;9.434;2022-07-17T14:21:05;100195.66;;;34.22;70.35
36788;BME280;22738;45.560;9.434;2022-07-17T14:27:47;100192.91;;;34.34;69.87
36788;BME280;22738;45.560;9.434;2022-07-17T14:34:28;100188.69;;;34.55;67.73
36788;BME280;22738;45.560;9.434;2022-07-17T14:41:09;100178.03;;;34.15;70.08
36788;BME280;22738;45.560;9.434;2022-07-17T14:47:51;100167.94;;;34.38;69.36
36788;BME280;22738;45.560;9.434;2022-07-17T14:54:32;100167.69;;;34.40;68.35
36788;BME280;22738;45.560;9.434;2022-07-17T15:01:13;100162.38;;;34.45;68.86
36788;BME280;22738;45.560;9.434;2022-07-17T15:07:54;100162.56;;;34.38;66.92
36788;BME280;22738;45.560;9.434;2022-07-17T15:14:35;100156.81;;;34.35;67.02
36788;BME280;22738;45.560;9.434;2022-07-17T15:21:16;100141.19;;;34.32;69.14
36788;BME280;22738;45.560;9.434;2022-07-17T15:27:57;100130.06;;;34.45;66.85
36788;BME280;22738;45.560;9.434;2022-07-17T15:34:38;100133.66;;;34.51;66.54
36788;BME280;22738;45.560;9.434;2022-07-17T15:41:19;100123.03;;;34.44;67.36
36788;BME280;22738;45.560;9.434;2022-07-17T15:48:01;100120.94;;;34.29;70.69
36788;BME280;22738;45.560;9.434;2022-07-17T15:54:42;100115.88;;;34.33;68.19
36788;BME280;22738;45.560;9.434;2022-07-17T16:01:23;100110.91;;;34.25;70.25
36788;BME280;22738;45.560;9.434;2022-07-17T16:08:04;100107.97;;;34.26;72.34
36788;BME280;22738;45.560;9.434;2022-07-17T16:14:45;100115.16;;;34.21;73.56
36788;BME280;22738;45.560;9.434;2022-07-17T16:21:27;100115.72;;;34.23;74.62
36788;BME280;22738;45.560;9.434;2022-07-17T16:28:08;100111.03;;;34.35;73.10
36788;BME280;22738;45.560;9.434;2022-07-17T16:34:49;100100.38;;;34.07;78.37
36788;BME280;22738;45.560;9.434;2022-07-17T16:41:31;100091.75;;;34.05;77.52
36788;BME280;22738;45.560;9.434;2022-07-17T16:48:12;100098.09;;;33.87;80.53
36788;BME280;22738;45.560;9.434;2022-07-17T16:54:53;100089.81;;;33.89;75.39
36788;BME280;22738;45.560;9.434;2022-07-17T17:01:34;100102.25;;;33.61;78.05
36788;BME280;22738;45.560;9.434;2022-07-17T17:08:15;100103.56;;;33.47;79.91
36788;BME280;22738;45.560;9.434;2022-07-17T17:14:57;100103.75;;;33.29;82.60
36788;BME280;22738;45.560;9.434;2022-07-17T17:21:38;100104.78;;;33.28;81.45
36788;BME280;22738;45.560;9.434;2022-07-17T17:28:19;100103.13;;;33.39;77.98
36788;BME280;22738;45.560;9.434;2022-07-17T17:35:00;100118.03;;;33.18;81.16
36788;BME280;22738;45.560;9.434;2022-07-17T17:41:41;100110.69;;;33.14;83.63
36788;BME280;22738;45.560;9.434;2022-07-17T17:48:22;100113.25;;;33.08;84.39
36788;BME280;22738;45.560;9.434;2022-07-17T17:55:04;100122.25;;;32.91;87.96
36788;BME280;22738;45.560;9.434;2022-07-17T18:01:45;100125.41;;;32.76;89.34
36788;BME280;22738;45.560;9.434;2022-07-17T18:08:26;100128.94;;;32.65;91.37
36788;BME280;22738;45.560;9.434;2022-07-17T18:15:10;100131.81;;;32.40;93.13
36788;BME280;22738;45.560;9.434;2022-07-17T18:21:51;100141.38;;;32.25;94.40
36788;BME280;22738;45.560;9.434;2022-07-17T18:28:32;100148.44;;;32.08;95.10
36788;BME280;22738;45.560;9.434;2022-07-17T18:35:13;100149.44;;;31.95;96.93
36788;BME280;22738;45.560;9.434;2022-07-17T18:41:54;100154.84;;;31.77;98.92
36788;BME280;22738;45.560;9.434;2022-07-17T18:48:35;100153.53;;;31.68;99.94
36788;BME280;22738;45.560;9.434;2022-07-17T18:55:17;100156.81;;;31.34;100.00
36788;BME280;22738;45.560;9.434;2022-07-17T19:02:00;100169.03;;;31.12;100.00
36788;BME280;22738;45.560;9.434;2022-07-17T19:08:41;100174.75;;;30.97;100.00
36788;BME280;22738;45.560;9.434;2022-07-17T19:15:22;100171.78;;;30.80;100.00
36788;BME280;22738;45.560;9.434;2022-07-17T19:22:03;100171.84;;;30.74;100.00
36788;BME280;22738;45.560;9.434;2022-07-17T19:28:44;100186.41;;;30.60;100.00
36788;BME280;22738;45.560;9.434;2022-07-17T19:35:26;100202.94;;;30.50;100.00
36788;BME280;22738;45.560;9.434;2022-07-17T19:42:08;100208.16;;;30.39;100.00
36788;BME280;22738;45.560;9.434;2022-07-17T19:48:49;100226.94;;;30.32;100.00
36788;BME280;22738;45.560;9.434;2022-07-17T19:55:30;100227.03;;;30.12;100.00
36788;BME280;22738;45.560;9.434;2022-07-17T20:02:12;100246.00;;;30.04;100.00
36788;BME280;22738;45.560;9.434;2022-07-17T20:08:54;100246.03;;;29.98;100.00
36788;BME280;22738;45.560;9.434;2022-07-17T20:15:36;100247.31;;;29.89;100.00
36788;BME280;22738;45.560;9.434;2022-07-17T20:22:17;100260.28;;;29.85;100.00
36788;BME280;22738;45.560;9.434;2022-07-17T20:28:58;100264.41;;;29.75;100.00
36788;BME280;22738;45.560;9.434;2022-07-17T20:35:41;100277.38;;;29.71;100.00
36788;BME280;22738;45.560;9.434;2022-07-17T20:42:25;100291.59;;;29.58;100.00
36788;BME280;22738;45.560;9.434;2022-07-17T20:49:06;100293.91;;;29.48;100.00
36788;BME280;22738;45.560;9.434;2022-07-17T20:55:47;100299.22;;;29.42;100.00
36788;BME280;22738;45.560;9.434;2022-07-17T21:02:28;100302.13;;;29.34;100.00
36788;BME280;22738;45.560;9.434;2022-07-17T21:09:10;100301.31;;;29.33;100.00
36788;BME280;22738;45.560;9.434;2022-07-17T21:15:51;100312.00;;;29.20;100.00
36788;BME280;22738;45.560;9.434;2022-07-17T21:22:32;100307.47;;;29.14;100.00
36788;BME280;22738;45.560;9.434;2022-07-17T21:29:17;100321.44;;;29.03;100.00
36788;BME280;22738;45.560;9.434;2022-07-17T21:35:58;100326.34;;;28.93;100.00
36788;BME280;22738;45.560;9.434;2022-07-17T21:42:42;100331.09;;;28.91;100.00
36788;BME280;22738;45.560;9.434;2022-07-17T21:49:23;100335.81;;;28.82;100.00
36788;BME280;22738;45.560;9.434;2022-07-17T21:56:04;100339.25;;;28.76;100.00
36788;BME280;22738;45.560;9.434;2022-07-17T22:02:45;100346.03;;;28.72;100.00
36788;BME280;22738;45.560;9.434;2022-07-17T22:09:27;100352.59;;;28.76;100.00
36788;BME280;22738;45.560;9.434;2022-07-17T22:16:08;100354.66;;;28.81;100.00
36788;BME280;22738;45.560;9.434;2022-07-17T22:22:49;100363.28;;;28.83;100.00
36788;BME280;22738;45.560;9.434;2022-07-17T22:29:30;100362.88;;;28.66;100.00
36788;BME280;22738;45.560;9.434;2022-07-17T22:36:11;100364.03;;;28.51;100.00
36788;BME280;22738;45.560;9.434;2022-07-17T22:42:52;100371.81;;;28.46;100.00
36788;BME280;22738;45.560;9.434;2022-07-17T22:49:33;100363.34;;;28.36;100.00
36788;BME280;22738;45.560;9.434;2022-07-17T22:56:16;100375.81;;;28.28;100.00
36788;BME280;22738;45.560;9.434;2022-07-17T23:02:57;100374.97;;;28.21;100.00
36788;BME280;22738;45.560;9.434;2022-07-17T23:09:39;100374.34;;;28.19;100.00
36788;BME280;22738;45.560;9.434;2022-07-17T23:16:20;100377.34;;;28.03;100.00
36788;BME280;22738;45.560;9.434;2022-07-17T23:23:02;100373.94;;;27.88;100.00
36788;BME280;22738;45.560;9.434;2022-07-17T23:29:43;100379.91;;;27.90;100.00
36788;BME280;22738;45.560;9.434;2022-07-17T23:36:24;100385.16;;;27.77;100.00
36788;BME280;22738;45.560;9.434;2022-07-17T23:43:05;100380.84;;;27.76;100.00
36788;BME280;22738;45.560;9.434;2022-07-17T23:49:46;100382.84;;;27.68;100.00
36788;BME280;22738;45.560;9.434;2022-07-17T23:56:27;100373.38;;;27.65;100.00
